sensor_id;sensor_type;location;lat;lon;timestamp;P1;durP1;ratioP1;P2;durP2;ratioP2
65641;SDS011;52340;-6.720;108.544;2023-11-18T00:00:17;50.05;;;34.00;;
65641;SDS011;52340;-6.720;108.544;2023-11-18T00:01:19;47.92;;;33.28;;
65641;SDS011;52340;-6.720;108.544;2023-11-18T00:02:23;50.00;;;33.40;;
65641;SDS011;52340;-6.720;108.544;2023-11-18T00:03:25;44.72;;;32.03;;
65641;SDS011;52340;-6.720;108.544;2023-11-18T00:04:26;49.95;;;33.92;;
65641;SDS011;52340;-6.720;108.544;2023-11-18T00:05:28;51.80;;;35.00;;
65641;SDS011;52340;-6.720;108.544;2023-11-18T00:06:30;45.83;;;33.55;;
65641;SDS011;52340;-6.720;108.544;2023-11-18T00:07:33;49.65;;;33.85;;
65641;SDS011;52340;-6.720;108.544;2023-11-18T00:08:35;50.20;;;35.97;;
65641;SDS011;52340;-6.720;108.544;2023-11-18T00:09:36;48.05;;;34.30;;
65641;SDS011;52340;-6.720;108.544;2023-11-18T00:10:38;49.33;;;34.15;;
65641;SDS011;52340;-6.720;108.544;2023-11-18T00:11:40;49.08;;;33.45;;
65641;SDS011;52340;-6.720;108.544;2023-11-18T00:12:49;49.60;;;34.28;;
65641;SDS011;52340;-6.720;108.544;2023-11-18T00:13:51;49.78;;;34.75;;
65641;SDS011;52340;-6.720;108.544;2023-11-18T00:14:52;51.60;;;35.70;;
65641;SDS011;52340;-6.720;108.544;2023-11-18T00:15:54;50.95;;;34.80;;
65641;SDS011;52340;-6.720;108.544;2023-11-18T00:16:56;50.58;;;34.05;;
65641;SDS011;52340;-6.720;108.544;2023-11-18T00:17:58;46.58;;;33.00;;
65641;SDS011;52340;-6.720;108.544;2023-11-18T00:18:59;44.05;;;32.15;;
65641;SDS011;52340;-6.720;108.544;2023-11-18T00:20:01;53.45;;;34.28;;
65641;SDS011;52340;-6.720;108.544;2023-11-18T00:21:03;48.65;;;33.50;;
65641;SDS011;52340;-6.720;108.544;2023-11-18T00:22:05;49.30;;;33.47;;
65641;SDS011;52340;-6.720;108.544;2023-11-18T00:23:08;50.33;;;34.78;;
65641;SDS011;52340;-6.720;108.544;2023-11-18T00:24:10;47.10;;;33.80;;
65641;SDS011;52340;-6.720;108.544;2023-11-18T00:25:12;45.72;;;33.40;;
65641;SDS011;52340;-6.720;108.544;2023-11-18T00:26:13;46.72;;;33.30;;
65641;SDS011;52340;-6.720;108.544;2023-11-18T00:27:17;49.45;;;33.78;;
65641;SDS011;52340;-6.720;108.544;2023-11-18T00:28:19;47.90;;;32.45;;
65641;SDS011;52340;-6.720;108.544;2023-11-18T00:29:21;46.35;;;33.05;;
65641;SDS011;52340;-6.720;108.544;2023-11-18T00:30:22;50.35;;;32.42;;
65641;SDS011;52340;-6.720;108.544;2023-11-18T00:31:24;49.08;;;33.00;;
65641;SDS011;52340;-6.720;108.544;2023-11-18T00:32:25;46.97;;;32.60;;
65641;SDS011;52340;-6.720;108.544;2023-11-18T00:33:27;47.97;;;31.88;;
65641;SDS011;52340;-6.720;108.544;2023-11-18T00:34:29;44.15;;;30.63;;
65641;SDS011;52340;-6.720;108.544;2023-11-18T00:35:31;45.85;;;30.10;;
65641;SDS011;52340;-6.720;108.544;2023-11-18T00:36:32;44.97;;;30.33;;
65641;SDS011;52340;-6.720;108.544;2023-11-18T00:37:34;48.33;;;31.17;;
65641;SDS011;52340;-6.720;108.544;2023-11-18T00:38:40;42.97;;;30.50;;
65641;SDS011;52340;-6.720;108.544;2023-11-18T00:39:41;41.58;;;30.40;;
65641;SDS011;52340;-6.720;108.544;2023-11-18T00:40:43;46.00;;;29.77;;
65641;SDS011;52340;-6.720;108.544;2023-11-18T00:41:45;42.17;;;29.88;;
65641;SDS011;52340;-6.720;108.544;2023-11-18T00:42:47;42.40;;;29.70;;
65641;SDS011;52340;-6.720;108.544;2023-11-18T00:43:48;45.53;;;30.30;;
65641;SDS011;52340;-6.720;108.544;2023-11-18T00:44:50;41.85;;;29.45;;
65641;SDS011;52340;-6.720;108.544;2023-11-18T00:45:51;38.03;;;28.25;;
65641;SDS011;52340;-6.720;108.544;2023-11-18T00:46:53;44.85;;;29.90;;
65641;SDS011;52340;-6.720;108.544;2023-11-18T00:47:55;42.03;;;30.45;;
65641;SDS011;52340;-6.720;108.544;2023-11-18T00:48:57;42.55;;;30.00;;
65641;SDS011;52340;-6.720;108.544;2023-11-18T00:49:59;44.33;;;30.48;;
65641;SDS011;52340;-6.720;108.544;2023-11-18T00:51:01;45.03;;;30.17;;
65641;SDS011;52340;-6.720;108.544;2023-11-18T00:52:03;48.00;;;31.13;;
65641;SDS011;52340;-6.720;108.544;2023-11-18T00:53:05;42.55;;;30.17;;
65641;SDS011;52340;-6.720;108.544;2023-11-18T00:54:08;42.78;;;30.77;;
65641;SDS011;52340;-6.720;108.544;2023-11-18T00:55:10;43.42;;;30.25;;
65641;SDS011;52340;-6.720;108.544;2023-11-18T00:56:13;44.53;;;30.13;;
65641;SDS011;52340;-6.720;108.544;2023-11-18T00:57:16;45.17;;;30.10;;
65641;SDS011;52340;-6.720;108.544;2023-11-18T00:58:18;44.78;;;31.08;;
65641;SDS011;52340;-6.720;108.544;2023-11-18T00:59:19;44.22;;;30.40;;
65641;SDS011;52340;-6.720;108.544;2023-11-18T01:00:21;41.22;;;29.27;;
65641;SDS011;52340;-6.720;108.544;2023-11-18T01:01:23;42.60;;;30.23;;
65641;SDS011;52340;-6.720;108.544;2023-11-18T01:02:24;47.88;;;29.92;;
65641;SDS011;52340;-6.720;108.544;2023-11-18T01:03:26;43.75;;;29.77;;
65641;SDS011;52340;-6.720;108.544;2023-11-18T01:04:28;46.33;;;29.85;;
65641;SDS011;52340;-6.720;108.544;2023-11-18T01:05:29;41.05;;;30.10;;
65641;SDS011;52340;-6.720;108.544;2023-11-18T01:06:31;45.83;;;30.75;;
65641;SDS011;52340;-6.720;108.544;2023-11-18T01:07:33;44.30;;;29.88;;
65641;SDS011;52340;-6.720;108.544;2023-11-18T01:08:34;44.20;;;30.92;;
65641;SDS011;52340;-6.720;108.544;2023-11-18T01:09:38;44.47;;;30.60;;
65641;SDS011;52340;-6.720;108.544;2023-11-18T01:10:39;46.47;;;31.50;;
65641;SDS011;52340;-6.720;108.544;2023-11-18T01:11:41;43.97;;;30.63;;
65641;SDS011;52340;-6.720;108.544;2023-11-18T01:12:43;49.50;;;30.77;;
65641;SDS011;52340;-6.720;108.544;2023-11-18T01:13:44;40.92;;;28.83;;
65641;SDS011;52340;-6.720;108.544;2023-11-18T01:14:46;45.30;;;30.02;;
65641;SDS011;52340;-6.720;108.544;2023-11-18T01:15:48;43.80;;;29.52;;
65641;SDS011;52340;-6.720;108.544;2023-11-18T01:16:50;43.42;;;29.95;;
65641;SDS011;52340;-6.720;108.544;2023-11-18T01:17:51;42.50;;;29.23;;
65641;SDS011;52340;-6.720;108.544;2023-11-18T01:18:53;42.13;;;30.85;;
65641;SDS011;52340;-6.720;108.544;2023-11-18T01:19:55;45.47;;;30.02;;
65641;SDS011;52340;-6.720;108.544;2023-11-18T01:20:56;41.47;;;28.80;;
65641;SDS011;52340;-6.720;108.544;2023-11-18T01:21:58;43.10;;;29.88;;
65641;SDS011;52340;-6.720;108.544;2023-11-18T01:23:00;45.42;;;30.52;;
65641;SDS011;52340;-6.720;108.544;2023-11-18T01:24:02;46.70;;;29.83;;
65641;SDS011;52340;-6.720;108.544;2023-11-18T01:25:06;41.83;;;29.00;;
65641;SDS011;52340;-6.720;108.544;2023-11-18T01:26:08;40.28;;;29.75;;
65641;SDS011;52340;-6.720;108.544;2023-11-18T01:27:10;42.03;;;28.83;;
65641;SDS011;52340;-6.720;108.544;2023-11-18T01:28:12;52.67;;;29.17;;
65641;SDS011;52340;-6.720;108.544;2023-11-18T01:29:13;40.53;;;28.52;;
65641;SDS011;52340;-6.720;108.544;2023-11-18T01:30:15;43.15;;;29.45;;
65641;SDS011;52340;-6.720;108.544;2023-11-18T01:31:17;40.97;;;28.30;;
65641;SDS011;52340;-6.720;108.544;2023-11-18T01:32:18;39.40;;;29.13;;
65641;SDS011;52340;-6.720;108.544;2023-11-18T01:33:20;45.70;;;30.63;;
65641;SDS011;52340;-6.720;108.544;2023-11-18T01:34:22;38.15;;;28.38;;
65641;SDS011;52340;-6.720;108.544;2023-11-18T01:35:26;45.05;;;30.67;;
65641;SDS011;52340;-6.720;108.544;2023-11-18T01:36:28;41.15;;;29.98;;
65641;SDS011;52340;-6.720;108.544;2023-11-18T01:37:29;40.63;;;28.75;;
65641;SDS011;52340;-6.720;108.544;2023-11-18T01:38:34;42.50;;;29.48;;
65641;SDS011;52340;-6.720;108.544;2023-11-18T01:39:35;43.17;;;28.50;;
65641;SDS011;52340;-6.720;108.544;2023-11-18T01:40:39;44.22;;;29.35;;
65641;SDS011;52340;-6.720;108.544;2023-11-18T01:41:41;42.72;;;30.10;;
65641;SDS011;52340;-6.720;108.544;2023-11-18T01:42:43;39.78;;;29.30;;
65641;SDS011;52340;-6.720;108.544;2023-11-18T01:43:45;41.90;;;29.08;;
65641;SDS011;52340;-6.720;108.544;2023-11-18T01:44:47;40.55;;;29.30;;
65641;SDS011;52340;-6.720;108.544;2023-11-18T01:45:49;41.97;;;29.75;;
65641;SDS011;52340;-6.720;108.544;2023-11-18T01:46:50;40.67;;;29.42;;
65641;SDS011;52340;-6.720;108.544;2023-11-18T01:47:52;39.25;;;28.98;;
65641;SDS011;52340;-6.720;108.544;2023-11-18T01:48:54;37.95;;;28.65;;
65641;SDS011;52340;-6.720;108.544;2023-11-18T01:49:56;40.80;;;29.30;;
65641;SDS011;52340;-6.720;108.544;2023-11-18T01:51:00;43.40;;;29.65;;
65641;SDS011;52340;-6.720;108.544;2023-11-18T01:52:03;41.60;;;27.88;;
65641;SDS011;52340;-6.720;108.544;2023-11-18T01:53:05;42.78;;;27.92;;
65641;SDS011;52340;-6.720;108.544;2023-11-18T01:54:07;38.28;;;28.52;;
65641;SDS011;52340;-6.720;108.544;2023-11-18T01:55:09;45.47;;;27.27;;
65641;SDS011;52340;-6.720;108.544;2023-11-18T01:56:13;34.38;;;26.02;;
65641;SDS011;52340;-6.720;108.544;2023-11-18T01:57:15;33.72;;;24.73;;
65641;SDS011;52340;-6.720;108.544;2023-11-18T01:58:17;35.63;;;26.63;;
65641;SDS011;52340;-6.720;108.544;2023-11-18T01:59:18;35.95;;;25.95;;
65641;SDS011;52340;-6.720;108.544;2023-11-18T02:00:20;37.72;;;26.73;;
65641;SDS011;52340;-6.720;108.544;2023-11-18T02:01:22;37.05;;;27.83;;
65641;SDS011;52340;-6.720;108.544;2023-11-18T02:02:24;39.65;;;26.95;;
65641;SDS011;52340;-6.720;108.544;2023-11-18T02:03:26;38.08;;;27.95;;
65641;SDS011;52340;-6.720;108.544;2023-11-18T02:04:28;43.78;;;27.70;;
65641;SDS011;52340;-6.720;108.544;2023-11-18T02:05:30;40.58;;;28.17;;
65641;SDS011;52340;-6.720;108.544;2023-11-18T02:06:31;38.80;;;28.25;;
65641;SDS011;52340;-6.720;108.544;2023-11-18T02:07:33;35.20;;;26.80;;
65641;SDS011;52340;-6.720;108.544;2023-11-18T02:08:35;39.63;;;28.33;;
65641;SDS011;52340;-6.720;108.544;2023-11-18T02:09:37;41.40;;;29.08;;
65641;SDS011;52340;-6.720;108.544;2023-11-18T02:10:39;46.65;;;30.08;;
65641;SDS011;52340;-6.720;108.544;2023-11-18T02:11:51;38.22;;;28.60;;
65641;SDS011;52340;-6.720;108.544;2023-11-18T02:12:55;39.45;;;28.02;;
65641;SDS011;52340;-6.720;108.544;2023-11-18T02:14:00;37.70;;;28.55;;
65641;SDS011;52340;-6.720;108.544;2023-11-18T02:15:02;39.92;;;29.48;;
65641;SDS011;52340;-6.720;108.544;2023-11-18T02:16:06;49.42;;;30.90;;
65641;SDS011;52340;-6.720;108.544;2023-11-18T02:17:09;46.95;;;31.90;;
65641;SDS011;52340;-6.720;108.544;2023-11-18T02:18:11;51.13;;;32.47;;
65641;SDS011;52340;-6.720;108.544;2023-11-18T02:19:16;52.17;;;33.83;;
65641;SDS011;52340;-6.720;108.544;2023-11-18T02:20:20;43.72;;;31.70;;
65641;SDS011;52340;-6.720;108.544;2023-11-18T02:21:22;43.55;;;30.23;;
65641;SDS011;52340;-6.720;108.544;2023-11-18T02:22:24;47.30;;;33.13;;
65641;SDS011;52340;-6.720;108.544;2023-11-18T02:23:26;67.20;;;43.55;;
65641;SDS011;52340;-6.720;108.544;2023-11-18T02:24:28;63.08;;;41.08;;
65641;SDS011;52340;-6.720;108.544;2023-11-18T02:25:30;63.55;;;41.38;;
65641;SDS011;52340;-6.720;108.544;2023-11-18T02:26:36;50.70;;;35.10;;
65641;SDS011;52340;-6.720;108.544;2023-11-18T02:27:37;50.58;;;33.55;;
65641;SDS011;52340;-6.720;108.544;2023-11-18T02:28:41;56.95;;;37.88;;
65641;SDS011;52340;-6.720;108.544;2023-11-18T02:29:44;53.17;;;35.13;;
65641;SDS011;52340;-6.720;108.544;2023-11-18T02:30:46;51.70;;;35.90;;
65641;SDS011;52340;-6.720;108.544;2023-11-18T02:31:48;50.45;;;33.47;;
65641;SDS011;52340;-6.720;108.544;2023-11-18T02:32:54;45.80;;;32.25;;
65641;SDS011;52340;-6.720;108.544;2023-11-18T02:33:59;44.60;;;32.15;;
65641;SDS011;52340;-6.720;108.544;2023-11-18T02:35:05;42.03;;;30.33;;
65641;SDS011;52340;-6.720;108.544;2023-11-18T02:36:13;43.58;;;30.38;;
65641;SDS011;52340;-6.720;108.544;2023-11-18T02:37:16;42.97;;;29.83;;
65641;SDS011;52340;-6.720;108.544;2023-11-18T02:38:19;42.65;;;30.13;;
65641;SDS011;52340;-6.720;108.544;2023-11-18T02:39:25;43.10;;;30.25;;
65641;SDS011;52340;-6.720;108.544;2023-11-18T02:40:31;40.03;;;28.75;;
65641;SDS011;52340;-6.720;108.544;2023-11-18T02:41:37;34.35;;;26.70;;
65641;SDS011;52340;-6.720;108.544;2023-11-18T02:42:39;36.33;;;26.90;;
65641;SDS011;52340;-6.720;108.544;2023-11-18T02:43:42;36.75;;;26.25;;
65641;SDS011;52340;-6.720;108.544;2023-11-18T02:44:45;36.60;;;26.42;;
65641;SDS011;52340;-6.720;108.544;2023-11-18T02:45:47;40.38;;;26.38;;
65641;SDS011;52340;-6.720;108.544;2023-11-18T02:46:49;35.65;;;27.00;;
65641;SDS011;52340;-6.720;108.544;2023-11-18T02:47:51;35.05;;;25.73;;
65641;SDS011;52340;-6.720;108.544;2023-11-18T02:48:53;35.15;;;26.65;;
65641;SDS011;52340;-6.720;108.544;2023-11-18T02:49:55;38.45;;;26.67;;
65641;SDS011;52340;-6.720;108.544;2023-11-18T02:50:56;41.17;;;26.98;;
65641;SDS011;52340;-6.720;108.544;2023-11-18T02:51:58;38.25;;;28.17;;
65641;SDS011;52340;-6.720;108.544;2023-11-18T02:53:00;39.25;;;27.52;;
65641;SDS011;52340;-6.720;108.544;2023-11-18T02:54:01;36.70;;;26.52;;
65641;SDS011;52340;-6.720;108.544;2023-11-18T02:55:04;38.35;;;28.13;;
65641;SDS011;52340;-6.720;108.544;2023-11-18T02:56:07;39.45;;;27.70;;
65641;SDS011;52340;-6.720;108.544;2023-11-18T02:57:11;38.33;;;27.52;;
65641;SDS011;52340;-6.720;108.544;2023-11-18T02:58:13;41.40;;;27.83;;
65641;SDS011;52340;-6.720;108.544;2023-11-18T02:59:15;38.83;;;27.13;;
65641;SDS011;52340;-6.720;108.544;2023-11-18T03:00:17;38.58;;;27.92;;
65641;SDS011;52340;-6.720;108.544;2023-11-18T03:01:19;40.80;;;28.23;;
65641;SDS011;52340;-6.720;108.544;2023-11-18T03:02:20;37.47;;;27.70;;
65641;SDS011;52340;-6.720;108.544;2023-11-18T03:03:22;38.17;;;25.98;;
65641;SDS011;52340;-6.720;108.544;2023-11-18T03:04:24;35.97;;;26.35;;
65641;SDS011;52340;-6.720;108.544;2023-11-18T03:05:25;36.78;;;26.35;;
65641;SDS011;52340;-6.720;108.544;2023-11-18T03:06:27;36.67;;;26.20;;
65641;SDS011;52340;-6.720;108.544;2023-11-18T03:07:29;34.72;;;26.35;;
65641;SDS011;52340;-6.720;108.544;2023-11-18T03:08:30;35.00;;;26.65;;
65641;SDS011;52340;-6.720;108.544;2023-11-18T03:09:33;38.97;;;27.80;;
65641;SDS011;52340;-6.720;108.544;2023-11-18T03:10:34;34.80;;;26.33;;
65641;SDS011;52340;-6.720;108.544;2023-11-18T03:11:36;35.38;;;26.38;;
65641;SDS011;52340;-6.720;108.544;2023-11-18T03:12:40;37.60;;;27.25;;
65641;SDS011;52340;-6.720;108.544;2023-11-18T03:13:41;33.20;;;25.70;;
65641;SDS011;52340;-6.720;108.544;2023-11-18T03:14:43;39.47;;;26.77;;
65641;SDS011;52340;-6.720;108.544;2023-11-18T03:15:45;35.42;;;25.90;;
65641;SDS011;52340;-6.720;108.544;2023-11-18T03:16:46;35.97;;;25.98;;
65641;SDS011;52340;-6.720;108.544;2023-11-18T03:17:48;37.97;;;26.15;;
65641;SDS011;52340;-6.720;108.544;2023-11-18T03:18:51;35.17;;;25.42;;
65641;SDS011;52340;-6.720;108.544;2023-11-18T03:19:52;33.00;;;25.65;;
65641;SDS011;52340;-6.720;108.544;2023-11-18T03:20:56;31.50;;;24.73;;
65641;SDS011;52340;-6.720;108.544;2023-11-18T03:21:58;29.65;;;24.60;;
65641;SDS011;52340;-6.720;108.544;2023-11-18T03:23:02;33.42;;;25.10;;
65641;SDS011;52340;-6.720;108.544;2023-11-18T03:24:04;29.80;;;23.88;;
65641;SDS011;52340;-6.720;108.544;2023-11-18T03:25:07;32.90;;;25.58;;
65641;SDS011;52340;-6.720;108.544;2023-11-18T03:26:09;35.03;;;24.55;;
65641;SDS011;52340;-6.720;108.544;2023-11-18T03:27:13;32.10;;;24.30;;
65641;SDS011;52340;-6.720;108.544;2023-11-18T03:28:16;36.50;;;25.90;;
65641;SDS011;52340;-6.720;108.544;2023-11-18T03:29:18;40.90;;;26.85;;
65641;SDS011;52340;-6.720;108.544;2023-11-18T03:30:20;36.78;;;25.08;;
65641;SDS011;52340;-6.720;108.544;2023-11-18T03:31:21;38.05;;;26.10;;
65641;SDS011;52340;-6.720;108.544;2023-11-18T03:32:23;33.95;;;24.65;;
65641;SDS011;52340;-6.720;108.544;2023-11-18T03:33:25;34.90;;;25.02;;
65641;SDS011;52340;-6.720;108.544;2023-11-18T03:34:27;32.83;;;24.83;;
65641;SDS011;52340;-6.720;108.544;2023-11-18T03:35:28;34.50;;;24.67;;
65641;SDS011;52340;-6.720;108.544;2023-11-18T03:36:30;31.73;;;24.35;;
65641;SDS011;52340;-6.720;108.544;2023-11-18T03:37:32;34.95;;;25.10;;
65641;SDS011;52340;-6.720;108.544;2023-11-18T03:38:33;34.90;;;25.02;;
65641;SDS011;52340;-6.720;108.544;2023-11-18T03:39:35;37.35;;;26.50;;
65641;SDS011;52340;-6.720;108.544;2023-11-18T03:40:37;34.13;;;25.90;;
65641;SDS011;52340;-6.720;108.544;2023-11-18T03:41:38;35.75;;;25.92;;
65641;SDS011;52340;-6.720;108.544;2023-11-18T03:42:41;39.25;;;25.85;;
65641;SDS011;52340;-6.720;108.544;2023-11-18T03:43:44;34.30;;;26.30;;
65641;SDS011;52340;-6.720;108.544;2023-11-18T03:44:46;33.60;;;24.85;;
65641;SDS011;52340;-6.720;108.544;2023-11-18T03:45:48;31.85;;;24.63;;
65641;SDS011;52340;-6.720;108.544;2023-11-18T03:46:50;33.97;;;25.30;;
65641;SDS011;52340;-6.720;108.544;2023-11-18T03:47:51;33.42;;;24.60;;
65641;SDS011;52340;-6.720;108.544;2023-11-18T03:48:53;35.92;;;25.05;;
65641;SDS011;52340;-6.720;108.544;2023-11-18T03:49:55;32.38;;;26.00;;
65641;SDS011;52340;-6.720;108.544;2023-11-18T03:50:59;33.10;;;24.85;;
65641;SDS011;52340;-6.720;108.544;2023-11-18T03:52:01;30.80;;;24.67;;
65641;SDS011;52340;-6.720;108.544;2023-11-18T03:53:03;32.40;;;24.80;;
65641;SDS011;52340;-6.720;108.544;2023-11-18T03:54:05;32.60;;;24.30;;
65641;SDS011;52340;-6.720;108.544;2023-11-18T03:55:07;32.95;;;24.98;;
65641;SDS011;52340;-6.720;108.544;2023-11-18T03:56:09;30.02;;;23.50;;
65641;SDS011;52340;-6.720;108.544;2023-11-18T03:57:11;32.20;;;24.42;;
65641;SDS011;52340;-6.720;108.544;2023-11-18T03:58:13;30.45;;;23.38;;
65641;SDS011;52340;-6.720;108.544;2023-11-18T03:59:16;34.30;;;25.77;;
65641;SDS011;52340;-6.720;108.544;2023-11-18T04:00:18;36.00;;;25.02;;
65641;SDS011;52340;-6.720;108.544;2023-11-18T04:01:22;35.35;;;24.38;;
65641;SDS011;52340;-6.720;108.544;2023-11-18T04:02:25;32.80;;;24.63;;
65641;SDS011;52340;-6.720;108.544;2023-11-18T04:03:26;34.92;;;25.33;;
65641;SDS011;52340;-6.720;108.544;2023-11-18T04:04:28;31.08;;;24.25;;
65641;SDS011;52340;-6.720;108.544;2023-11-18T04:05:30;30.63;;;24.30;;
65641;SDS011;52340;-6.720;108.544;2023-11-18T04:06:31;35.63;;;25.02;;
65641;SDS011;52340;-6.720;108.544;2023-11-18T04:07:33;30.88;;;23.27;;
65641;SDS011;52340;-6.720;108.544;2023-11-18T04:08:35;31.08;;;24.00;;
65641;SDS011;52340;-6.720;108.544;2023-11-18T04:09:36;31.10;;;23.25;;
65641;SDS011;52340;-6.720;108.544;2023-11-18T04:10:38;30.15;;;23.75;;
65641;SDS011;52340;-6.720;108.544;2023-11-18T04:11:40;31.42;;;23.88;;
65641;SDS011;52340;-6.720;108.544;2023-11-18T04:12:41;31.55;;;24.25;;
65641;SDS011;52340;-6.720;108.544;2023-11-18T04:13:43;28.70;;;23.25;;
65641;SDS011;52340;-6.720;108.544;2023-11-18T04:14:47;32.78;;;24.17;;
65641;SDS011;52340;-6.720;108.544;2023-11-18T04:15:49;32.35;;;23.77;;
65641;SDS011;52340;-6.720;108.544;2023-11-18T04:16:53;31.77;;;24.50;;
65641;SDS011;52340;-6.720;108.544;2023-11-18T04:17:54;30.98;;;23.60;;
65641;SDS011;52340;-6.720;108.544;2023-11-18T04:18:56;32.20;;;24.08;;
65641;SDS011;52340;-6.720;108.544;2023-11-18T04:19:58;30.10;;;23.65;;
65641;SDS011;52340;-6.720;108.544;2023-11-18T04:20:59;31.77;;;23.15;;
65641;SDS011;52340;-6.720;108.544;2023-11-18T04:22:01;28.17;;;22.50;;
65641;SDS011;52340;-6.720;108.544;2023-11-18T04:23:06;27.45;;;22.67;;
65641;SDS011;52340;-6.720;108.544;2023-11-18T04:24:08;29.60;;;22.75;;
65641;SDS011;52340;-6.720;108.544;2023-11-18T04:25:10;29.85;;;22.27;;
65641;SDS011;52340;-6.720;108.544;2023-11-18T04:26:12;30.40;;;24.08;;
65641;SDS011;52340;-6.720;108.544;2023-11-18T04:27:14;32.33;;;23.45;;
65641;SDS011;52340;-6.720;108.544;2023-11-18T04:28:16;31.25;;;22.25;;
65641;SDS011;52340;-6.720;108.544;2023-11-18T04:29:17;30.75;;;22.48;;
65641;SDS011;52340;-6.720;108.544;2023-11-18T04:30:22;30.88;;;22.80;;
65641;SDS011;52340;-6.720;108.544;2023-11-18T04:31:24;31.50;;;23.48;;
65641;SDS011;52340;-6.720;108.544;2023-11-18T04:32:28;29.85;;;23.20;;
65641;SDS011;52340;-6.720;108.544;2023-11-18T04:33:30;29.88;;;22.50;;
65641;SDS011;52340;-6.720;108.544;2023-11-18T04:34:32;27.95;;;22.33;;
65641;SDS011;52340;-6.720;108.544;2023-11-18T04:35:35;25.77;;;21.17;;
65641;SDS011;52340;-6.720;108.544;2023-11-18T04:36:40;26.13;;;21.15;;
65641;SDS011;52340;-6.720;108.544;2023-11-18T04:37:42;29.38;;;21.70;;
65641;SDS011;52340;-6.720;108.544;2023-11-18T04:38:43;28.90;;;21.73;;
65641;SDS011;52340;-6.720;108.544;2023-11-18T04:39:45;25.70;;;21.58;;
65641;SDS011;52340;-6.720;108.544;2023-11-18T04:40:49;28.15;;;22.48;;
65641;SDS011;52340;-6.720;108.544;2023-11-18T04:41:51;30.20;;;22.75;;
65641;SDS011;52340;-6.720;108.544;2023-11-18T04:42:52;27.70;;;21.52;;
65641;SDS011;52340;-6.720;108.544;2023-11-18T04:43:54;31.27;;;21.35;;
65641;SDS011;52340;-6.720;108.544;2023-11-18T04:44:58;30.10;;;21.83;;
65641;SDS011;52340;-6.720;108.544;2023-11-18T04:46:02;27.70;;;20.55;;
65641;SDS011;52340;-6.720;108.544;2023-11-18T04:47:04;27.77;;;21.15;;
65641;SDS011;52340;-6.720;108.544;2023-11-18T04:48:06;31.92;;;21.98;;
65641;SDS011;52340;-6.720;108.544;2023-11-18T04:49:10;26.35;;;19.45;;
65641;SDS011;52340;-6.720;108.544;2023-11-18T04:50:11;32.70;;;21.08;;
65641;SDS011;52340;-6.720;108.544;2023-11-18T04:51:13;26.63;;;20.80;;
65641;SDS011;52340;-6.720;108.544;2023-11-18T04:52:15;27.95;;;19.98;;
65641;SDS011;52340;-6.720;108.544;2023-11-18T04:53:17;26.42;;;21.15;;
65641;SDS011;52340;-6.720;108.544;2023-11-18T04:54:19;28.67;;;19.88;;
65641;SDS011;52340;-6.720;108.544;2023-11-18T04:55:20;24.45;;;19.17;;
65641;SDS011;52340;-6.720;108.544;2023-11-18T04:56:22;25.17;;;19.98;;
65641;SDS011;52340;-6.720;108.544;2023-11-18T04:57:24;27.02;;;20.33;;
65641;SDS011;52340;-6.720;108.544;2023-11-18T04:58:25;24.70;;;19.58;;
65641;SDS011;52340;-6.720;108.544;2023-11-18T04:59:27;25.50;;;20.08;;
65641;SDS011;52340;-6.720;108.544;2023-11-18T05:00:29;26.83;;;19.48;;
65641;SDS011;52340;-6.720;108.544;2023-11-18T05:01:33;25.48;;;19.30;;
65641;SDS011;52340;-6.720;108.544;2023-11-18T05:02:35;23.77;;;18.25;;
65641;SDS011;52340;-6.720;108.544;2023-11-18T05:03:36;24.90;;;18.67;;
65641;SDS011;52340;-6.720;108.544;2023-11-18T05:04:38;22.63;;;17.75;;
65641;SDS011;52340;-6.720;108.544;2023-11-18T05:05:40;24.50;;;17.52;;
65641;SDS011;52340;-6.720;108.544;2023-11-18T05:06:42;24.98;;;17.38;;
65641;SDS011;52340;-6.720;108.544;2023-11-18T05:07:46;22.95;;;17.23;;
65641;SDS011;52340;-6.720;108.544;2023-11-18T05:08:48;21.23;;;16.70;;
65641;SDS011;52340;-6.720;108.544;2023-11-18T05:09:50;20.15;;;16.05;;
65641;SDS011;52340;-6.720;108.544;2023-11-18T05:10:54;22.52;;;15.68;;
65641;SDS011;52340;-6.720;108.544;2023-11-18T05:12:00;21.00;;;15.38;;
65641;SDS011;52340;-6.720;108.544;2023-11-18T05:13:01;21.05;;;15.13;;
65641;SDS011;52340;-6.720;108.544;2023-11-18T05:14:06;21.80;;;14.95;;
65641;SDS011;52340;-6.720;108.544;2023-11-18T05:15:08;17.85;;;14.10;;
65641;SDS011;52340;-6.720;108.544;2023-11-18T05:16:10;19.30;;;13.73;;
65641;SDS011;52340;-6.720;108.544;2023-11-18T05:17:13;18.00;;;13.75;;
65641;SDS011;52340;-6.720;108.544;2023-11-18T05:18:15;19.55;;;14.27;;
65641;SDS011;52340;-6.720;108.544;2023-11-18T05:19:17;20.13;;;14.65;;
65641;SDS011;52340;-6.720;108.544;2023-11-18T05:20:19;17.45;;;13.57;;
65641;SDS011;52340;-6.720;108.544;2023-11-18T05:21:20;18.50;;;13.68;;
65641;SDS011;52340;-6.720;108.544;2023-11-18T05:22:22;22.08;;;14.57;;
65641;SDS011;52340;-6.720;108.544;2023-11-18T05:23:24;20.15;;;13.98;;
65641;SDS011;52340;-6.720;108.544;2023-11-18T05:24:26;19.38;;;13.90;;
65641;SDS011;52340;-6.720;108.544;2023-11-18T05:25:28;17.17;;;12.75;;
65641;SDS011;52340;-6.720;108.544;2023-11-18T05:26:30;18.20;;;13.55;;
65641;SDS011;52340;-6.720;108.544;2023-11-18T05:27:35;17.23;;;13.50;;
65641;SDS011;52340;-6.720;108.544;2023-11-18T05:28:37;18.38;;;12.80;;
65641;SDS011;52340;-6.720;108.544;2023-11-18T05:29:39;18.60;;;13.85;;
65641;SDS011;52340;-6.720;108.544;2023-11-18T05:30:41;19.40;;;12.85;;
65641;SDS011;52340;-6.720;108.544;2023-11-18T05:31:43;20.80;;;13.50;;
65641;SDS011;52340;-6.720;108.544;2023-11-18T05:32:47;21.17;;;13.18;;
65641;SDS011;52340;-6.720;108.544;2023-11-18T05:33:49;20.65;;;13.68;;
65641;SDS011;52340;-6.720;108.544;2023-11-18T05:34:50;17.88;;;13.00;;
65641;SDS011;52340;-6.720;108.544;2023-11-18T05:35:52;19.73;;;13.55;;
65641;SDS011;52340;-6.720;108.544;2023-11-18T05:36:54;22.35;;;13.85;;
65641;SDS011;52340;-6.720;108.544;2023-11-18T05:38:04;18.75;;;14.02;;
65641;SDS011;52340;-6.720;108.544;2023-11-18T05:40:07;20.88;;;14.30;;
65641;SDS011;52340;-6.720;108.544;2023-11-18T05:41:09;20.67;;;13.82;;
65641;SDS011;52340;-6.720;108.544;2023-11-18T05:42:11;18.42;;;13.88;;
65641;SDS011;52340;-6.720;108.544;2023-11-18T05:43:13;20.27;;;14.15;;
65641;SDS011;52340;-6.720;108.544;2023-11-18T05:44:14;19.70;;;14.82;;
65641;SDS011;52340;-6.720;108.544;2023-11-18T05:45:16;22.42;;;14.02;;
65641;SDS011;52340;-6.720;108.544;2023-11-18T05:46:20;24.25;;;14.13;;
65641;SDS011;52340;-6.720;108.544;2023-11-18T05:47:22;20.48;;;13.32;;
65641;SDS011;52340;-6.720;108.544;2023-11-18T05:48:26;19.88;;;13.50;;
65641;SDS011;52340;-6.720;108.544;2023-11-18T05:49:27;20.08;;;13.02;;
65641;SDS011;52340;-6.720;108.544;2023-11-18T05:50:29;19.00;;;12.85;;
65641;SDS011;52340;-6.720;108.544;2023-11-18T05:51:31;35.22;;;14.20;;
65641;SDS011;52340;-6.720;108.544;2023-11-18T05:52:33;20.92;;;12.93;;
65641;SDS011;52340;-6.720;108.544;2023-11-18T05:53:37;19.40;;;13.13;;
65641;SDS011;52340;-6.720;108.544;2023-11-18T05:54:40;33.20;;;14.38;;